sensor_id;sensor_type;location;lat;lon;timestamp;P1;durP1;ratioP1;P2;durP2;ratioP2
9436;SDS011;4757;59.334;18.034;2023-06-22T00:00:02;7.27;;;6.63;;
9436;SDS011;4757;59.334;18.034;2023-06-22T00:02:35;6.77;;;6.00;;
9436;SDS011;4757;59.334;18.034;2023-06-22T00:05:02;5.80;;;5.40;;
9436;SDS011;4757;59.334;18.034;2023-06-22T00:07:29;8.50;;;7.13;;
9436;SDS011;4757;59.334;18.034;2023-06-22T00:09:56;6.63;;;6.00;;
9436;SDS011;4757;59.334;18.034;2023-06-22T00:12:23;7.27;;;6.57;;
9436;SDS011;4757;59.334;18.034;2023-06-22T00:14:50;6.97;;;6.37;;
9436;SDS011;4757;59.334;18.034;2023-06-22T00:17:17;7.33;;;6.73;;
9436;SDS011;4757;59.334;18.034;2023-06-22T00:19:46;7.97;;;6.63;;
9436;SDS011;4757;59.334;18.034;2023-06-22T00:22:13;7.90;;;7.20;;
9436;SDS011;4757;59.334;18.034;2023-06-22T00:24:41;7.70;;;7.00;;
9436;SDS011;4757;59.334;18.034;2023-06-22T00:27:08;10.23;;;6.73;;
9436;SDS011;4757;59.334;18.034;2023-06-22T00:29:35;7.37;;;6.73;;
9436;SDS011;4757;59.334;18.034;2023-06-22T00:32:02;7.30;;;6.60;;
9436;SDS011;4757;59.334;18.034;2023-06-22T00:34:30;7.80;;;6.67;;
9436;SDS011;4757;59.334;18.034;2023-06-22T00:36:57;7.33;;;6.73;;
9436;SDS011;4757;59.334;18.034;2023-06-22T00:39:25;7.77;;;7.07;;
9436;SDS011;4757;59.334;18.034;2023-06-22T00:41:52;7.60;;;6.93;;
9436;SDS011;4757;59.334;18.034;2023-06-22T00:44:19;6.73;;;6.07;;
9436;SDS011;4757;59.334;18.034;2023-06-22T00:46:46;7.63;;;6.33;;
9436;SDS011;4757;59.334;18.034;2023-06-22T00:49:14;7.03;;;6.17;;
9436;SDS011;4757;59.334;18.034;2023-06-22T00:51:41;7.77;;;6.90;;
9436;SDS011;4757;59.334;18.034;2023-06-22T00:54:12;6.97;;;6.37;;
9436;SDS011;4757;59.334;18.034;2023-06-22T00:56:42;7.70;;;6.90;;
9436;SDS011;4757;59.334;18.034;2023-06-22T00:59:09;7.70;;;7.00;;
9436;SDS011;4757;59.334;18.034;2023-06-22T01:01:38;9.10;;;6.57;;
9436;SDS011;4757;59.334;18.034;2023-06-22T01:04:07;8.23;;;7.43;;
9436;SDS011;4757;59.334;18.034;2023-06-22T01:06:35;7.03;;;6.43;;
9436;SDS011;4757;59.334;18.034;2023-06-22T01:09:18;8.43;;;7.63;;
9436;SDS011;4757;59.334;18.034;2023-06-22T01:11:51;8.17;;;7.47;;
9436;SDS011;4757;59.334;18.034;2023-06-22T01:14:36;8.10;;;7.40;;
9436;SDS011;4757;59.334;18.034;2023-06-22T01:17:10;8.77;;;7.60;;
9436;SDS011;4757;59.334;18.034;2023-06-22T01:19:46;8.47;;;7.67;;
9436;SDS011;4757;59.334;18.034;2023-06-22T01:22:19;9.37;;;8.33;;
9436;SDS011;4757;59.334;18.034;2023-06-22T01:24:57;9.10;;;8.20;;
9436;SDS011;4757;59.334;18.034;2023-06-22T01:30:18;9.13;;;8.27;;
9436;SDS011;4757;59.334;18.034;2023-06-22T01:32:45;8.73;;;7.97;;
9436;SDS011;4757;59.334;18.034;2023-06-22T01:35:13;9.57;;;8.40;;
9436;SDS011;4757;59.334;18.034;2023-06-22T01:37:41;9.23;;;8.40;;
9436;SDS011;4757;59.334;18.034;2023-06-22T01:40:09;9.30;;;8.50;;
9436;SDS011;4757;59.334;18.034;2023-06-22T01:42:37;9.10;;;8.20;;
9436;SDS011;4757;59.334;18.034;2023-06-22T01:45:05;8.93;;;8.23;;
9436;SDS011;4757;59.334;18.034;2023-06-22T01:47:33;9.60;;;8.70;;
9436;SDS011;4757;59.334;18.034;2023-06-22T01:50:00;8.90;;;8.10;;
9436;SDS011;4757;59.334;18.034;2023-06-22T01:52:28;9.67;;;8.67;;
9436;SDS011;4757;59.334;18.034;2023-06-22T01:54:55;10.47;;;9.57;;
9436;SDS011;4757;59.334;18.034;2023-06-22T01:57:24;9.23;;;8.47;;
9436;SDS011;4757;59.334;18.034;2023-06-22T02:00:02;9.40;;;8.60;;
9436;SDS011;4757;59.334;18.034;2023-06-22T02:02:32;9.97;;;9.07;;
9436;SDS011;4757;59.334;18.034;2023-06-22T02:05:06;11.37;;;10.30;;
9436;SDS011;4757;59.334;18.034;2023-06-22T02:07:41;9.40;;;8.60;;
9436;SDS011;4757;59.334;18.034;2023-06-22T02:10:39;9.20;;;7.90;;
9436;SDS011;4757;59.334;18.034;2023-06-22T02:13:08;9.90;;;9.00;;
9436;SDS011;4757;59.334;18.034;2023-06-22T02:15:36;9.53;;;8.73;;
9436;SDS011;4757;59.334;18.034;2023-06-22T02:18:04;10.53;;;9.53;;
9436;SDS011;4757;59.334;18.034;2023-06-22T02:20:32;11.27;;;9.17;;
9436;SDS011;4757;59.334;18.034;2023-06-22T02:22:59;9.20;;;8.43;;
9436;SDS011;4757;59.334;18.034;2023-06-22T02:25:26;11.17;;;8.40;;
9436;SDS011;4757;59.334;18.034;2023-06-22T02:27:53;9.83;;;8.97;;
9436;SDS011;4757;59.334;18.034;2023-06-22T02:30:20;9.80;;;8.90;;
9436;SDS011;4757;59.334;18.034;2023-06-22T02:32:47;10.07;;;9.13;;
9436;SDS011;4757;59.334;18.034;2023-06-22T02:35:14;9.67;;;8.70;;
9436;SDS011;4757;59.334;18.034;2023-06-22T02:37:41;9.83;;;9.03;;
9436;SDS011;4757;59.334;18.034;2023-06-22T02:40:08;8.47;;;7.77;;
9436;SDS011;4757;59.334;18.034;2023-06-22T02:42:37;9.67;;;8.87;;
9436;SDS011;4757;59.334;18.034;2023-06-22T02:45:04;9.80;;;8.80;;
9436;SDS011;4757;59.334;18.034;2023-06-22T02:47:31;9.73;;;8.93;;
9436;SDS011;4757;59.334;18.034;2023-06-22T02:49:59;9.87;;;8.97;;
9436;SDS011;4757;59.334;18.034;2023-06-22T02:52:26;9.70;;;8.90;;
9436;SDS011;4757;59.334;18.034;2023-06-22T02:54:55;9.73;;;8.77;;
9436;SDS011;4757;59.334;18.034;2023-06-22T02:57:25;9.30;;;8.50;;
9436;SDS011;4757;59.334;18.034;2023-06-22T02:59:52;9.87;;;8.97;;
9436;SDS011;4757;59.334;18.034;2023-06-22T03:02:19;9.57;;;8.60;;
9436;SDS011;4757;59.334;18.034;2023-06-22T03:04:48;9.10;;;8.30;;
9436;SDS011;4757;59.334;18.034;2023-06-22T03:07:15;8.90;;;8.20;;
9436;SDS011;4757;59.334;18.034;2023-06-22T03:09:44;11.67;;;9.23;;
9436;SDS011;4757;59.334;18.034;2023-06-22T03:12:11;15.33;;;9.07;;
9436;SDS011;4757;59.334;18.034;2023-06-22T03:14:38;9.43;;;8.63;;
9436;SDS011;4757;59.334;18.034;2023-06-22T03:17:05;9.57;;;8.43;;
9436;SDS011;4757;59.334;18.034;2023-06-22T03:19:32;9.07;;;8.27;;
9436;SDS011;4757;59.334;18.034;2023-06-22T03:21:59;9.73;;;8.83;;
9436;SDS011;4757;59.334;18.034;2023-06-22T03:24:27;8.93;;;8.23;;
9436;SDS011;4757;59.334;18.034;2023-06-22T03:26:56;9.20;;;8.30;;
9436;SDS011;4757;59.334;18.034;2023-06-22T03:29:23;10.67;;;9.57;;
9436;SDS011;4757;59.334;18.034;2023-06-22T03:31:54;9.40;;;8.60;;
9436;SDS011;4757;59.334;18.034;2023-06-22T03:34:22;9.40;;;8.60;;
9436;SDS011;4757;59.334;18.034;2023-06-22T03:36:49;9.63;;;8.83;;
9436;SDS011;4757;59.334;18.034;2023-06-22T03:39:16;9.90;;;9.03;;
9436;SDS011;4757;59.334;18.034;2023-06-22T03:41:43;10.53;;;9.47;;
9436;SDS011;4757;59.334;18.034;2023-06-22T03:44:10;9.73;;;8.77;;
9436;SDS011;4757;59.334;18.034;2023-06-22T03:46:38;9.90;;;8.90;;
9436;SDS011;4757;59.334;18.034;2023-06-22T03:49:06;9.53;;;8.60;;
9436;SDS011;4757;59.334;18.034;2023-06-22T03:51:33;9.30;;;8.60;;
9436;SDS011;4757;59.334;18.034;2023-06-22T03:54:00;9.53;;;8.63;;
9436;SDS011;4757;59.334;18.034;2023-06-22T03:56:27;9.43;;;8.63;;
9436;SDS011;4757;59.334;18.034;2023-06-22T03:58:54;8.67;;;7.97;;
9436;SDS011;4757;59.334;18.034;2023-06-22T04:01:21;9.47;;;8.20;;
9436;SDS011;4757;59.334;18.034;2023-06-22T04:03:48;8.50;;;7.80;;
9436;SDS011;4757;59.334;18.034;2023-06-22T04:06:16;9.23;;;8.37;;
9436;SDS011;4757;59.334;18.034;2023-06-22T04:08:44;8.60;;;7.80;;
9436;SDS011;4757;59.334;18.034;2023-06-22T04:11:14;8.87;;;8.10;;
9436;SDS011;4757;59.334;18.034;2023-06-22T04:13:41;9.40;;;8.40;;
9436;SDS011;4757;59.334;18.034;2023-06-22T04:16:08;9.57;;;8.67;;
9436;SDS011;4757;59.334;18.034;2023-06-22T04:18:35;11.30;;;7.87;;
9436;SDS011;4757;59.334;18.034;2023-06-22T04:21:02;8.63;;;7.87;;
9436;SDS011;4757;59.334;18.034;2023-06-22T04:23:30;9.67;;;8.77;;
9436;SDS011;4757;59.334;18.034;2023-06-22T04:25:57;9.17;;;8.17;;
9436;SDS011;4757;59.334;18.034;2023-06-22T04:28:25;9.93;;;8.27;;
9436;SDS011;4757;59.334;18.034;2023-06-22T04:30:53;8.50;;;7.70;;
9436;SDS011;4757;59.334;18.034;2023-06-22T04:33:24;8.53;;;7.63;;
9436;SDS011;4757;59.334;18.034;2023-06-22T04:35:51;8.87;;;8.07;;
9436;SDS011;4757;59.334;18.034;2023-06-22T04:38:18;7.67;;;7.03;;
9436;SDS011;4757;59.334;18.034;2023-06-22T04:40:48;7.93;;;7.20;;
9436;SDS011;4757;59.334;18.034;2023-06-22T04:43:15;8.40;;;7.60;;
9436;SDS011;4757;59.334;18.034;2023-06-22T04:45:42;8.33;;;7.63;;
9436;SDS011;4757;59.334;18.034;2023-06-22T04:48:09;8.03;;;7.23;;
9436;SDS011;4757;59.334;18.034;2023-06-22T04:50:42;8.03;;;7.20;;
9436;SDS011;4757;59.334;18.034;2023-06-22T04:53:10;8.23;;;7.47;;
9436;SDS011;4757;59.334;18.034;2023-06-22T04:55:39;8.00;;;7.20;;
9436;SDS011;4757;59.334;18.034;2023-06-22T04:58:08;8.53;;;7.63;;
9436;SDS011;4757;59.334;18.034;2023-06-22T05:00:35;7.80;;;7.20;;
9436;SDS011;4757;59.334;18.034;2023-06-22T05:03:05;7.53;;;6.90;;
9436;SDS011;4757;59.334;18.034;2023-06-22T05:05:45;9.43;;;6.77;;
9436;SDS011;4757;59.334;18.034;2023-06-22T05:08:13;9.50;;;7.33;;
9436;SDS011;4757;59.334;18.034;2023-06-22T05:10:40;7.67;;;7.03;;
9436;SDS011;4757;59.334;18.034;2023-06-22T05:13:27;7.80;;;7.10;;
9436;SDS011;4757;59.334;18.034;2023-06-22T05:15:54;8.67;;;7.20;;
9436;SDS011;4757;59.334;18.034;2023-06-22T05:18:29;12.30;;;7.47;;
9436;SDS011;4757;59.334;18.034;2023-06-22T05:20:58;8.80;;;6.90;;
9436;SDS011;4757;59.334;18.034;2023-06-22T05:23:26;9.23;;;7.13;;
9436;SDS011;4757;59.334;18.034;2023-06-22T05:25:53;8.60;;;7.40;;
9436;SDS011;4757;59.334;18.034;2023-06-22T05:28:21;7.53;;;6.83;;
9436;SDS011;4757;59.334;18.034;2023-06-22T05:30:49;7.07;;;6.47;;
9436;SDS011;4757;59.334;18.034;2023-06-22T05:33:17;9.10;;;6.57;;
9436;SDS011;4757;59.334;18.034;2023-06-22T05:35:44;7.13;;;6.47;;
9436;SDS011;4757;59.334;18.034;2023-06-22T05:38:11;6.83;;;6.27;;
9436;SDS011;4757;59.334;18.034;2023-06-22T05:40:38;7.80;;;6.93;;
9436;SDS011;4757;59.334;18.034;2023-06-22T05:43:05;7.40;;;6.53;;
9436;SDS011;4757;59.334;18.034;2023-06-22T05:45:32;8.10;;;6.27;;
9436;SDS011;4757;59.334;18.034;2023-06-22T05:47:59;6.77;;;6.10;;
9436;SDS011;4757;59.334;18.034;2023-06-22T05:50:26;8.50;;;5.43;;
9436;SDS011;4757;59.334;18.034;2023-06-22T05:52:53;7.07;;;6.10;;
9436;SDS011;4757;59.334;18.034;2023-06-22T05:55:23;6.40;;;5.80;;
9436;SDS011;4757;59.334;18.034;2023-06-22T05:57:50;7.53;;;6.27;;
9436;SDS011;4757;59.334;18.034;2023-06-22T06:00:17;8.67;;;6.30;;
9436;SDS011;4757;59.334;18.034;2023-06-22T06:02:45;6.97;;;6.00;;
9436;SDS011;4757;59.334;18.034;2023-06-22T06:05:12;7.27;;;6.57;;
9436;SDS011;4757;59.334;18.034;2023-06-22T06:07:45;6.97;;;6.27;;
9436;SDS011;4757;59.334;18.034;2023-06-22T06:10:13;10.27;;;7.13;;
9436;SDS011;4757;59.334;18.034;2023-06-22T06:12:41;7.97;;;7.13;;
9436;SDS011;4757;59.334;18.034;2023-06-22T06:15:08;6.90;;;6.20;;
9436;SDS011;4757;59.334;18.034;2023-06-22T06:17:44;8.43;;;6.37;;
9436;SDS011;4757;59.334;18.034;2023-06-22T06:20:15;9.67;;;6.67;;
9436;SDS011;4757;59.334;18.034;2023-06-22T06:22:54;7.37;;;6.43;;
9436;SDS011;4757;59.334;18.034;2023-06-22T06:25:22;7.57;;;5.93;;
9436;SDS011;4757;59.334;18.034;2023-06-22T06:27:51;6.40;;;5.80;;
9436;SDS011;4757;59.334;18.034;2023-06-22T06:30:19;9.30;;;5.20;;
9436;SDS011;4757;59.334;18.034;2023-06-22T06:32:46;6.87;;;5.87;;
9436;SDS011;4757;59.334;18.034;2023-06-22T06:35:14;8.50;;;5.30;;
9436;SDS011;4757;59.334;18.034;2023-06-22T06:37:45;8.87;;;5.20;;
9436;SDS011;4757;59.334;18.034;2023-06-22T06:40:14;6.13;;;5.53;;
9436;SDS011;4757;59.334;18.034;2023-06-22T06:42:43;6.70;;;6.10;;
9436;SDS011;4757;59.334;18.034;2023-06-22T06:45:12;6.13;;;5.23;;
9436;SDS011;4757;59.334;18.034;2023-06-22T06:47:41;6.47;;;5.00;;
9436;SDS011;4757;59.334;18.034;2023-06-22T06:50:08;7.57;;;5.27;;
9436;SDS011;4757;59.334;18.034;2023-06-22T06:52:36;7.43;;;5.23;;
9436;SDS011;4757;59.334;18.034;2023-06-22T06:55:04;7.27;;;4.70;;
9436;SDS011;4757;59.334;18.034;2023-06-22T06:57:38;8.03;;;4.83;;
9436;SDS011;4757;59.334;18.034;2023-06-22T07:00:06;6.10;;;4.23;;
9436;SDS011;4757;59.334;18.034;2023-06-22T07:02:43;5.20;;;4.50;;
9436;SDS011;4757;59.334;18.034;2023-06-22T07:05:12;13.77;;;4.87;;
9436;SDS011;4757;59.334;18.034;2023-06-22T07:07:39;6.37;;;4.63;;
9436;SDS011;4757;59.334;18.034;2023-06-22T07:10:08;7.57;;;5.00;;
9436;SDS011;4757;59.334;18.034;2023-06-22T07:12:36;7.83;;;4.33;;
9436;SDS011;4757;59.334;18.034;2023-06-22T07:15:03;11.60;;;5.20;;
9436;SDS011;4757;59.334;18.034;2023-06-22T07:17:31;7.50;;;4.13;;
9436;SDS011;4757;59.334;18.034;2023-06-22T07:19:59;16.27;;;5.40;;
9436;SDS011;4757;59.334;18.034;2023-06-22T07:22:27;6.30;;;4.67;;
9436;SDS011;4757;59.334;18.034;2023-06-22T07:24:54;5.33;;;4.83;;
9436;SDS011;4757;59.334;18.034;2023-06-22T07:27:21;11.07;;;5.60;;
9436;SDS011;4757;59.334;18.034;2023-06-22T07:29:48;6.90;;;4.40;;
9436;SDS011;4757;59.334;18.034;2023-06-22T07:32:15;6.37;;;4.90;;
9436;SDS011;4757;59.334;18.034;2023-06-22T07:34:43;7.40;;;4.70;;
9436;SDS011;4757;59.334;18.034;2023-06-22T07:37:12;8.13;;;4.73;;
9436;SDS011;4757;59.334;18.034;2023-06-22T07:39:39;5.97;;;4.83;;
9436;SDS011;4757;59.334;18.034;2023-06-22T07:42:06;7.10;;;4.43;;
9436;SDS011;4757;59.334;18.034;2023-06-22T07:44:33;5.23;;;4.20;;
9436;SDS011;4757;59.334;18.034;2023-06-22T07:47:00;5.13;;;4.10;;
9436;SDS011;4757;59.334;18.034;2023-06-22T07:49:28;9.07;;;5.10;;
9436;SDS011;4757;59.334;18.034;2023-06-22T07:51:55;6.00;;;4.50;;
9436;SDS011;4757;59.334;18.034;2023-06-22T07:54:22;4.37;;;3.97;;
9436;SDS011;4757;59.334;18.034;2023-06-22T07:56:50;6.00;;;4.07;;
9436;SDS011;4757;59.334;18.034;2023-06-22T07:59:16;5.07;;;4.20;;
9436;SDS011;4757;59.334;18.034;2023-06-22T08:01:43;6.77;;;4.57;;
9436;SDS011;4757;59.334;18.034;2023-06-22T08:04:11;7.67;;;4.53;;
9436;SDS011;4757;59.334;18.034;2023-06-22T08:06:38;6.87;;;4.60;;
9436;SDS011;4757;59.334;18.034;2023-06-22T08:09:05;7.03;;;4.47;;
9436;SDS011;4757;59.334;18.034;2023-06-22T08:11:32;5.07;;;4.00;;
9436;SDS011;4757;59.334;18.034;2023-06-22T08:14:00;6.13;;;4.27;;
9436;SDS011;4757;59.334;18.034;2023-06-22T08:16:27;7.77;;;4.50;;
9436;SDS011;4757;59.334;18.034;2023-06-22T08:18:54;6.93;;;4.43;;
9436;SDS011;4757;59.334;18.034;2023-06-22T08:21:21;8.32;;;4.22;;
9436;SDS011;4757;59.334;18.034;2023-06-22T08:23:48;6.30;;;3.47;;
9436;SDS011;4757;59.334;18.034;2023-06-22T08:26:15;4.70;;;4.03;;
9436;SDS011;4757;59.334;18.034;2023-06-22T08:28:42;6.73;;;4.63;;
9436;SDS011;4757;59.334;18.034;2023-06-22T08:31:09;5.57;;;4.27;;
9436;SDS011;4757;59.334;18.034;2023-06-22T08:33:38;5.85;;;4.10;;
9436;SDS011;4757;59.334;18.034;2023-06-22T08:36:14;6.00;;;4.53;;
9436;SDS011;4757;59.334;18.034;2023-06-22T08:38:42;7.77;;;4.17;;
9436;SDS011;4757;59.334;18.034;2023-06-22T08:41:10;7.90;;;4.30;;
9436;SDS011;4757;59.334;18.034;2023-06-22T08:43:37;5.10;;;4.00;;
9436;SDS011;4757;59.334;18.034;2023-06-22T08:46:04;4.93;;;4.30;;
9436;SDS011;4757;59.334;18.034;2023-06-22T08:48:32;5.67;;;4.37;;
9436;SDS011;4757;59.334;18.034;2023-06-22T08:50:59;5.00;;;4.10;;
9436;SDS011;4757;59.334;18.034;2023-06-22T08:53:26;4.40;;;4.00;;
9436;SDS011;4757;59.334;18.034;2023-06-22T08:55:53;6.07;;;4.90;;
9436;SDS011;4757;59.334;18.034;2023-06-22T08:58:20;5.95;;;3.85;;
9436;SDS011;4757;59.334;18.034;2023-06-22T09:00:48;7.57;;;4.55;;
9436;SDS011;4757;59.334;18.034;2023-06-22T09:03:15;4.55;;;3.92;;
9436;SDS011;4757;59.334;18.034;2023-06-22T09:05:43;6.78;;;5.15;;
9436;SDS011;4757;59.334;18.034;2023-06-22T09:08:10;4.95;;;3.72;;
9436;SDS011;4757;59.334;18.034;2023-06-22T09:10:37;6.25;;;3.90;;
9436;SDS011;4757;59.334;18.034;2023-06-22T09:13:04;5.55;;;3.83;;
9436;SDS011;4757;59.334;18.034;2023-06-22T09:15:32;6.35;;;3.97;;
9436;SDS011;4757;59.334;18.034;2023-06-22T09:18:00;5.28;;;4.25;;
9436;SDS011;4757;59.334;18.034;2023-06-22T09:20:28;4.88;;;4.00;;
9436;SDS011;4757;59.334;18.034;2023-06-22T09:22:55;5.25;;;3.97;;
9436;SDS011;4757;59.334;18.034;2023-06-22T09:25:22;3.95;;;3.55;;
9436;SDS011;4757;59.334;18.034;2023-06-22T09:27:49;4.65;;;4.13;;
9436;SDS011;4757;59.334;18.034;2023-06-22T09:30:16;4.40;;;3.58;;
9436;SDS011;4757;59.334;18.034;2023-06-22T09:32:44;4.85;;;3.78;;
9436;SDS011;4757;59.334;18.034;2023-06-22T09:35:11;4.20;;;3.80;;
9436;SDS011;4757;59.334;18.034;2023-06-22T09:37:40;6.65;;;3.85;;
9436;SDS011;4757;59.334;18.034;2023-06-22T09:40:07;8.20;;;4.43;;
9436;SDS011;4757;59.334;18.034;2023-06-22T09:42:39;4.60;;;3.65;;
9436;SDS011;4757;59.334;18.034;2023-06-22T09:45:08;10.27;;;4.03;;
9436;SDS011;4757;59.334;18.034;2023-06-22T09:47:35;7.15;;;4.07;;
9436;SDS011;4757;59.334;18.034;2023-06-22T09:50:02;7.43;;;4.10;;
9436;SDS011;4757;59.334;18.034;2023-06-22T09:52:30;7.90;;;3.85;;
9436;SDS011;4757;59.334;18.034;2023-06-22T09:55:13;7.55;;;5.07;;
9436;SDS011;4757;59.334;18.034;2023-06-22T09:57:43;13.10;;;4.00;;
9436;SDS011;4757;59.334;18.034;2023-06-22T10:00:10;4.70;;;3.78;;
9436;SDS011;4757;59.334;18.034;2023-06-22T10:02:40;8.88;;;4.50;;
9436;SDS011;4757;59.334;18.034;2023-06-22T10:05:09;7.43;;;3.80;;
9436;SDS011;4757;59.334;18.034;2023-06-22T10:07:36;5.45;;;3.95;;
9436;SDS011;4757;59.334;18.034;2023-06-22T10:10:09;5.85;;;3.20;;
9436;SDS011;4757;59.334;18.034;2023-06-22T10:12:47;4.30;;;3.40;;
9436;SDS011;4757;59.334;18.034;2023-06-22T10:15:21;8.13;;;3.60;;
9436;SDS011;4757;59.334;18.034;2023-06-22T10:17:48;5.25;;;3.30;;
9436;SDS011;4757;59.334;18.034;2023-06-22T10:20:16;6.57;;;3.30;;
9436;SDS011;4757;59.334;18.034;2023-06-22T10:22:44;9.10;;;2.90;;
9436;SDS011;4757;59.334;18.034;2023-06-22T10:25:12;5.78;;;3.40;;
9436;SDS011;4757;59.334;18.034;2023-06-22T10:27:39;8.90;;;3.30;;
9436;SDS011;4757;59.334;18.034;2023-06-22T10:30:08;5.57;;;3.20;;
9436;SDS011;4757;59.334;18.034;2023-06-22T10:32:37;6.50;;;2.95;;
9436;SDS011;4757;59.334;18.034;2023-06-22T10:35:04;6.30;;;3.50;;
9436;SDS011;4757;59.334;18.034;2023-06-22T10:37:32;4.88;;;2.80;;
9436;SDS011;4757;59.334;18.034;2023-06-22T10:39:59;8.23;;;3.83;;
9436;SDS011;4757;59.334;18.034;2023-06-22T10:42:26;4.35;;;2.67;;
9436;SDS011;4757;59.334;18.034;2023-06-22T10:44:53;4.53;;;3.00;;
9436;SDS011;4757;59.334;18.034;2023-06-22T10:47:20;6.13;;;2.90;;
9436;SDS011;4757;59.334;18.034;2023-06-22T10:49:47;5.72;;;2.83;;
9436;SDS011;4757;59.334;18.034;2023-06-22T10:52:14;4.15;;;3.10;;
9436;SDS011;4757;59.334;18.034;2023-06-22T10:54:41;4.85;;;3.08;;
9436;SDS011;4757;59.334;18.034;2023-06-22T10:57:11;3.50;;;3.20;;
9436;SDS011;4757;59.334;18.034;2023-06-22T10:59:38;5.28;;;3.30;;
9436;SDS011;4757;59.334;18.034;2023-06-22T11:02:06;5.63;;;3.55;;
9436;SDS011;4757;59.334;18.034;2023-06-22T11:04:33;6.43;;;3.45;;
9436;SDS011;4757;59.334;18.034;2023-06-22T11:07:00;3.15;;;2.85;;
9436;SDS011;4757;59.334;18.034;2023-06-22T11:09:29;3.08;;;2.38;;
9436;SDS011;4757;59.334;18.034;2023-06-22T11:11:56;5.85;;;3.03;;
9436;SDS011;4757;59.334;18.034;2023-06-22T11:14:25;3.35;;;3.00;;
9436;SDS011;4757;59.334;18.034;2023-06-22T11:16:53;5.78;;;2.90;;
9436;SDS011;4757;59.334;18.034;2023-06-22T11:19:20;5.80;;;2.50;;
9436;SDS011;4757;59.334;18.034;2023-06-22T11:21:47;4.30;;;2.58;;
9436;SDS011;4757;59.334;18.034;2023-06-22T11:24:14;5.40;;;2.80;;
9436;SDS011;4757;59.334;18.034;2023-06-22T11:26:42;5.35;;;3.00;;
9436;SDS011;4757;59.334;18.034;2023-06-22T11:29:09;7.65;;;3.08;;
9436;SDS011;4757;59.334;18.034;2023-06-22T11:31:53;8.10;;;2.88;;
9436;SDS011;4757;59.334;18.034;2023-06-22T11:34:20;3.13;;;2.42;;
9436;SDS011;4757;59.334;18.034;2023-06-22T11:36:47;2.65;;;2.45;;
9436;SDS011;4757;59.334;18.034;2023-06-22T11:39:14;3.00;;;2.47;;
9436;SDS011;4757;59.334;18.034;2023-06-22T11:41:41;4.72;;;2.90;;
9436;SDS011;4757;59.334;18.034;2023-06-22T11:44:08;12.45;;;3.78;;
9436;SDS011;4757;59.334;18.034;2023-06-22T11:46:36;4.03;;;2.40;;
9436;SDS011;4757;59.334;18.034;2023-06-22T11:49:03;2.75;;;2.20;;
9436;SDS011;4757;59.334;18.034;2023-06-22T11:51:30;7.18;;;2.65;;
9436;SDS011;4757;59.334;18.034;2023-06-22T11:53:59;3.97;;;2.45;;
9436;SDS011;4757;59.334;18.034;2023-06-22T11:56:26;3.53;;;2.05;;
9436;SDS011;4757;59.334;18.034;2023-06-22T11:58:54;2.45;;;2.20;;
9436;SDS011;4757;59.334;18.034;2023-06-22T12:01:21;3.30;;;2.70;;
9436;SDS011;4757;59.334;18.034;2023-06-22T12:03:48;4.78;;;2.50;;
9436;SDS011;4757;59.334;18.034;2023-06-22T12:06:15;2.47;;;2.28;;
9436;SDS011;4757;59.334;18.034;2023-06-22T12:08:43;10.13;;;2.65;;
9436;SDS011;4757;59.334;18.034;2023-06-22T12:11:10;5.65;;;2.47;;
9436;SDS011;4757;59.334;18.034;2023-06-22T12:13:37;8.45;;;6.00;;
9436;SDS011;4757;59.334;18.034;2023-06-22T12:16:04;3.17;;;2.83;;
9436;SDS011;4757;59.334;18.034;2023-06-22T12:18:32;3.70;;;2.67;;
9436;SDS011;4757;59.334;18.034;2023-06-22T12:21:02;2.97;;;2.78;;
9436;SDS011;4757;59.334;18.034;2023-06-22T12:23:29;4.15;;;2.40;;
9436;SDS011;4757;59.334;18.034;2023-06-22T12:25:56;4.82;;;2.92;;
9436;SDS011;4757;59.334;18.034;2023-06-22T12:28:23;2.88;;;2.50;;
9436;SDS011;4757;59.334;18.034;2023-06-22T12:30:50;3.72;;;3.08;;
9436;SDS011;4757;59.334;18.034;2023-06-22T12:33:17;6.32;;;3.10;;
9436;SDS011;4757;59.334;18.034;2023-06-22T12:35:45;5.15;;;2.97;;
9436;SDS011;4757;59.334;18.034;2023-06-22T12:38:15;4.90;;;3.10;;
9436;SDS011;4757;59.334;18.034;2023-06-22T12:40:42;4.13;;;3.10;;
9436;SDS011;4757;59.334;18.034;2023-06-22T12:43:09;5.63;;;3.10;;
9436;SDS011;4757;59.334;18.034;2023-06-22T12:45:36;4.20;;;2.67;;
9436;SDS011;4757;59.334;18.034;2023-06-22T12:48:03;2.80;;;2.50;;
9436;SDS011;4757;59.334;18.034;2023-06-22T12:50:31;4.28;;;2.95;;
9436;SDS011;4757;59.334;18.034;2023-06-22T12:53:00;6.35;;;2.78;;
9436;SDS011;4757;59.334;18.034;2023-06-22T12:55:28;2.97;;;2.78;;
9436;SDS011;4757;59.334;18.034;2023-06-22T12:57:56;2.95;;;2.75;;
9436;SDS011;4757;59.334;18.034;2023-06-22T13:00:23;7.63;;;3.30;;
9436;SDS011;4757;59.334;18.034;2023-06-22T13:02:50;4.53;;;2.90;;
9436;SDS011;4757;59.334;18.034;2023-06-22T13:05:19;3.47;;;2.97;;
9436;SDS011;4757;59.334;18.034;2023-06-22T13:07:47;3.10;;;2.80;;
9436;SDS011;4757;59.334;18.034;2023-06-22T13:10:14;7.75;;;2.50;;
9436;SDS011;4757;59.334;18.034;2023-06-22T13:12:41;4.47;;;2.80;;
9436;SDS011;4757;59.334;18.034;2023-06-22T13:15:08;2.70;;;2.50;;
9436;SDS011;4757;59.334;18.034;2023-06-22T13:17:35;3.20;;;2.92;;
9436;SDS011;4757;59.334;18.034;2023-06-22T13:20:03;3.00;;;2.70;;
9436;SDS011;4757;59.334;18.034;2023-06-22T13:22:31;4.68;;;3.45;;
9436;SDS011;4757;59.334;18.034;2023-06-22T13:25:00;2.85;;;2.55;;
9436;SDS011;4757;59.334;18.034;2023-06-22T13:27:28;5.00;;;3.83;;
9436;SDS011;4757;59.334;18.034;2023-06-22T13:29:56;4.95;;;3.88;;
9436;SDS011;4757;59.334;18.034;2023-06-22T13:32:23;4.18;;;3.17;;
9436;SDS011;4757;59.334;18.034;2023-06-22T13:34:50;3.70;;;3.05;;
9436;SDS011;4757;59.334;18.034;2023-06-22T13:37:18;5.22;;;2.95;;
9436;SDS011;4757;59.334;18.034;2023-06-22T13:39:45;3.85;;;2.67;;
9436;SDS011;4757;59.334;18.034;2023-06-22T13:42:13;3.85;;;2.90;;
9436;SDS011;4757;59.334;18.034;2023-06-22T13:44:40;4.57;;;2.92;;
9436;SDS011;4757;59.334;18.034;2023-06-22T13:47:07;3.60;;;2.70;;
9436;SDS011;4757;59.334;18.034;2023-06-22T13:49:34;3.67;;;2.70;;
9436;SDS011;4757;59.334;18.034;2023-06-22T13:52:01;5.90;;;3.00;;
9436;SDS011;4757;59.334;18.034;2023-06-22T13:54:32;3.50;;;3.13;;
9436;SDS011;4757;59.334;18.034;2023-06-22T13:57:01;4.55;;;3.20;;
9436;SDS011;4757;59.334;18.034;2023-06-22T13:59:29;4.25;;;2.90;;
9436;SDS011;4757;59.334;18.034;2023-06-22T14:01:56;3.35;;;3.05;;
9436;SDS011;4757;59.334;18.034;2023-06-22T14:04:23;6.28;;;3.50;;
9436;SDS011;4757;59.334;18.034;2023-06-22T14:06:51;3.95;;;3.03;;
9436;SDS011;4757;59.334;18.034;2023-06-22T14:09:22;7.28;;;2.95;;
9436;SDS011;4757;59.334;18.034;2023-06-22T14:11:49;3.22;;;2.90;;
9436;SDS011;4757;59.334;18.034;2023-06-22T14:14:16;5.40;;;3.13;;
9436;SDS011;4757;59.334;18.034;2023-06-22T14:16:43;3.42;;;3.10;;
9436;SDS011;4757;59.334;18.034;2023-06-22T14:19:10;4.78;;;2.35;;
9436;SDS011;4757;59.334;18.034;2023-06-22T14:21:37;9.10;;;3.53;;
9436;SDS011;4757;59.334;18.034;2023-06-22T14:24:04;9.55;;;3.10;;
9436;SDS011;4757;59.334;18.034;2023-06-22T14:26:31;7.57;;;3.10;;
9436;SDS011;4757;59.334;18.034;2023-06-22T14:28:58;4.25;;;2.65;;
9436;SDS011;4757;59.334;18.034;2023-06-22T14:31:25;6.15;;;3.25;;
9436;SDS011;4757;59.334;18.034;2023-06-22T14:33:53;4.30;;;3.22;;
9436;SDS011;4757;59.334;18.034;2023-06-22T14:36:20;4.47;;;3.00;;
9436;SDS011;4757;59.334;18.034;2023-06-22T14:38:47;4.05;;;2.70;;
9436;SDS011;4757;59.334;18.034;2023-06-22T14:41:14;7.53;;;3.05;;
9436;SDS011;4757;59.334;18.034;2023-06-22T14:43:44;3.08;;;2.80;;
9436;SDS011;4757;59.334;18.034;2023-06-22T14:46:17;4.75;;;2.90;;
9436;SDS011;4757;59.334;18.034;2023-06-22T14:48:45;3.47;;;3.08;;
9436;SDS011;4757;59.334;18.034;2023-06-22T14:51:13;5.18;;;3.30;;
9436;SDS011;4757;59.334;18.034;2023-06-22T14:53:43;4.80;;;3.40;;
9436;SDS011;4757;59.334;18.034;2023-06-22T14:56:12;4.95;;;3.05;;
9436;SDS011;4757;59.334;18.034;2023-06-22T14:58:41;5.07;;;2.90;;
9436;SDS011;4757;59.334;18.034;2023-06-22T15:01:13;4.45;;;2.83;;
9436;SDS011;4757;59.334;18.034;2023-06-22T15:03:41;9.48;;;3.33;;
9436;SDS011;4757;59.334;18.034;2023-06-22T15:06:08;6.45;;;2.60;;
9436;SDS011;4757;59.334;18.034;2023-06-22T15:08:39;6.53;;;3.53;;